»·PEaware :: N6238A KSNA-KMYF

N6238A :: KSNA-KMYF

FLIGHT INFORMATION

Flight Status: Arrived
Operator: Privately registered:
United States
More flights under this callsign
Pilot: Mark F. (25878)
Aircraft: CESSNA 172 SKYHAWK
(C172)
More flights by this aircraft type
Origin: KSNA John Wayne-Orange Co
United States
Destination: KMYF Montgomery
United States
More flights between these airports :: More routes between these airports
Route: V23 MZB
File this flight plan on PilotEdge
Remarks:
Altitude:
(Current/Filed)
5,000ft
Speed:
(Current/Filed)
100kts
Departed: 05-Apr-22 07:50 PM
Arrived: 05-Apr-22 08:29 PM
Distance/Time
Traveled:
63nm/0:39
Distance/Time
To Go:
Arrived

Flight Plot

Page will automatically refresh every two minutes.


Map Options




Map Legend


Flown Route
Filed Route
Departure Airport
Arrival Airport
Navaid (VOR, NDB)
Fix

Horizontal Profiles

Position Reports

Time Latitude Longitude Heading Altitude Ground
Speed
05-Apr-22 19:24 33.676032 -117.871360 219 60ft 0kts
05-Apr-22 19:25 33.676032 -117.871360 219 60ft 0kts
05-Apr-22 19:26 33.676032 -117.871360 219 60ft 0kts
05-Apr-22 19:27 33.676032 -117.871360 219 60ft 0kts
05-Apr-22 19:28 33.676032 -117.871360 219 60ft 0kts
05-Apr-22 19:29 33.676032 -117.871360 219 60ft 0kts
05-Apr-22 19:30 33.676032 -117.871360 219 60ft 0kts
05-Apr-22 19:31 33.676032 -117.871360 219 60ft 0kts
05-Apr-22 19:32 33.676032 -117.871360 219 60ft 0kts
05-Apr-22 19:33 33.676022 -117.871368 211 60ft 2kts
05-Apr-22 19:34 33.676661 -117.869700 29 60ft 15kts
05-Apr-22 19:35 33.681232 -117.866858 86 60ft 2kts
05-Apr-22 19:36 33.681233 -117.866618 96 60ft 0kts
05-Apr-22 19:37 33.681233 -117.866618 96 60ft 0kts
05-Apr-22 19:38 33.681233 -117.866618 96 60ft 0kts
05-Apr-22 19:39 33.681233 -117.866618 96 60ft 0kts
05-Apr-22 19:40 33.681233 -117.866618 96 60ft 0kts
05-Apr-22 19:41 33.681233 -117.866618 96 60ft 0kts
05-Apr-22 19:42 33.681233 -117.866618 96 60ft 0kts
05-Apr-22 19:43 33.681233 -117.866618 96 60ft 0kts
05-Apr-22 19:44 33.681233 -117.866618 96 60ft 0kts
05-Apr-22 19:45 33.681233 -117.866618 96 60ft 0kts
05-Apr-22 19:46 33.681233 -117.866618 96 60ft 0kts
05-Apr-22 19:47 33.681233 -117.866618 96 60ft 0kts
05-Apr-22 19:48 33.681233 -117.866618 96 60ft 0kts
05-Apr-22 19:49 33.674423 -117.869691 209 234ft 74kts
05-Apr-22 19:50 33.656316 -117.876067 188 1331ft 67kts
05-Apr-22 19:51 33.639070 -117.867704 136 2322ft 72kts
05-Apr-22 19:52 33.623741 -117.852251 146 3073ft 91kts
05-Apr-22 19:53 33.602145 -117.830209 143 3744ft 103kts
05-Apr-22 19:54 33.581253 -117.807496 142 4542ft 100kts
05-Apr-22 19:55 33.558201 -117.786715 147 5001ft 122kts
05-Apr-22 19:56 33.535764 -117.762487 141 4997ft 92kts
05-Apr-22 19:57 33.513626 -117.736688 139 5004ft 122kts
05-Apr-22 19:58 33.488768 -117.707480 139 5004ft 126kts
05-Apr-22 19:59 33.464908 -117.679486 139 5003ft 111kts
05-Apr-22 20:00 33.442692 -117.653490 139 5007ft 114kts
05-Apr-22 20:01 33.419766 -117.626661 139 5008ft 116kts
05-Apr-22 20:02 33.396633 -117.599610 139 5009ft 116kts
05-Apr-22 20:03 33.373480 -117.572560 139 5010ft 116kts
05-Apr-22 20:04 33.350166 -117.545345 139 4975ft 118kts
05-Apr-22 20:05 33.326640 -117.517894 139 4976ft 117kts
05-Apr-22 20:06 33.303231 -117.490599 138 4977ft 118kts
05-Apr-22 20:07 33.279737 -117.463225 138 4978ft 118kts
05-Apr-22 20:08 33.256144 -117.435759 138 4980ft 119kts
05-Apr-22 20:09 33.229621 -117.413716 162 4979ft 111kts
05-Apr-22 20:10 33.201149 -117.401092 164 4980ft 107kts
05-Apr-22 20:11 33.173053 -117.389214 164 4981ft 107kts
05-Apr-22 20:12 33.144870 -117.377351 164 4982ft 107kts
05-Apr-22 20:13 33.116822 -117.365555 164 4982ft 107kts
05-Apr-22 20:14 33.088052 -117.353467 164 4983ft 111kts
05-Apr-22 20:15 33.058833 -117.341196 164 4971ft 111kts
05-Apr-22 20:16 33.029712 -117.328979 164 4971ft 111kts
05-Apr-22 20:17 33.000414 -117.316690 165 4974ft 117kts
05-Apr-22 20:18 32.968981 -117.303506 165 4973ft 121kts
05-Apr-22 20:19 32.938393 -117.290718 165 4555ft 117kts
05-Apr-22 20:20 32.907875 -117.277938 164 4043ft 110kts
05-Apr-22 20:21 32.880072 -117.266310 164 3540ft 104kts
05-Apr-22 20:22 32.863578 -117.238449 122 3033ft 99kts
05-Apr-22 20:23 32.851118 -117.209531 120 2640ft 102kts
05-Apr-22 20:24 32.838114 -117.179252 121 1793ft 99kts
05-Apr-22 20:25 32.826488 -117.150286 106 1352ft 92kts
05-Apr-22 20:26 32.823382 -117.120631 102 1483ft 87kts
05-Apr-22 20:27 32.813685 -117.133153 291 492ft 98kts
05-Apr-22 20:28 32.817757 -117.143789 292 415ft 0kts

Navigation Log

Ident Type
Flight plan parsing failed, navigation log unavailable